sensor_id;sensor_type;location;lat;lon;timestamp;P1;durP1;ratioP1;P2;durP2;ratioP2
29206;SDS011;16247;50.840;4.382;2023-03-21T00:00:14;15.98;;;6.88;;
29206;SDS011;16247;50.840;4.382;2023-03-21T00:02:51;13.13;;;5.68;;
29206;SDS011;16247;50.840;4.382;2023-03-21T00:05:56;16.88;;;5.85;;
29206;SDS011;16247;50.840;4.382;2023-03-21T00:09:01;13.07;;;6.47;;
29206;SDS011;16247;50.840;4.382;2023-03-21T00:11:45;11.43;;;5.70;;
29206;SDS011;16247;50.840;4.382;2023-03-21T00:14:12;11.32;;;5.60;;
29206;SDS011;16247;50.840;4.382;2023-03-21T00:16:42;12.80;;;6.20;;
29206;SDS011;16247;50.840;4.382;2023-03-21T00:19:15;13.65;;;6.20;;
29206;SDS011;16247;50.840;4.382;2023-03-21T00:21:53;13.88;;;6.13;;
29206;SDS011;16247;50.840;4.382;2023-03-21T00:24:30;10.20;;;5.90;;
29206;SDS011;16247;50.840;4.382;2023-03-21T00:37:10;7.13;;;4.70;;
29206;SDS011;16247;50.840;4.382;2023-03-21T00:39:44;13.45;;;5.65;;
29206;SDS011;16247;50.840;4.382;2023-03-21T00:42:16;12.63;;;5.35;;
29206;SDS011;16247;50.840;4.382;2023-03-21T00:44:41;13.40;;;5.00;;
29206;SDS011;16247;50.840;4.382;2023-03-21T00:47:12;14.18;;;5.43;;
29206;SDS011;16247;50.840;4.382;2023-03-21T00:49:41;13.25;;;5.38;;
29206;SDS011;16247;50.840;4.382;2023-03-21T00:55:01;15.80;;;5.35;;
29206;SDS011;16247;50.840;4.382;2023-03-21T01:00:03;13.70;;;4.93;;
29206;SDS011;16247;50.840;4.382;2023-03-21T01:02:42;11.80;;;5.13;;
29206;SDS011;16247;50.840;4.382;2023-03-21T01:05:45;10.57;;;5.32;;
29206;SDS011;16247;50.840;4.382;2023-03-21T01:08:46;9.93;;;4.97;;
29206;SDS011;16247;50.840;4.382;2023-03-21T01:14:37;11.98;;;4.40;;
29206;SDS011;16247;50.840;4.382;2023-03-21T02:01:34;16.33;;;5.40;;
29206;SDS011;16247;50.840;4.382;2023-03-21T02:07:17;15.07;;;5.18;;
29206;SDS011;16247;50.840;4.382;2023-03-21T02:10:12;13.93;;;6.05;;
29206;SDS011;16247;50.840;4.382;2023-03-21T02:35:13;10.35;;;4.60;;
29206;SDS011;16247;50.840;4.382;2023-03-21T02:41:15;7.50;;;3.85;;
29206;SDS011;16247;50.840;4.382;2023-03-21T02:49:23;9.18;;;3.60;;
29206;SDS011;16247;50.840;4.382;2023-03-21T02:52:10;11.75;;;3.60;;
29206;SDS011;16247;50.840;4.382;2023-03-21T02:54:43;13.68;;;3.70;;
29206;SDS011;16247;50.840;4.382;2023-03-21T03:18:10;11.35;;;3.85;;
29206;SDS011;16247;50.840;4.382;2023-03-21T03:31:02;11.65;;;3.70;;
29206;SDS011;16247;50.840;4.382;2023-03-21T03:33:29;10.52;;;3.47;;
29206;SDS011;16247;50.840;4.382;2023-03-21T03:35:58;9.00;;;3.63;;
29206;SDS011;16247;50.840;4.382;2023-03-21T03:38:27;12.23;;;3.20;;
29206;SDS011;16247;50.840;4.382;2023-03-21T03:41:05;13.55;;;3.80;;
29206;SDS011;16247;50.840;4.382;2023-03-21T03:43:39;11.43;;;3.60;;
29206;SDS011;16247;50.840;4.382;2023-03-21T03:46:18;12.88;;;4.03;;
29206;SDS011;16247;50.840;4.382;2023-03-21T03:49:16;13.48;;;4.57;;
29206;SDS011;16247;50.840;4.382;2023-03-21T03:55:15;12.68;;;4.55;;
29206;SDS011;16247;50.840;4.382;2023-03-21T03:57:53;14.23;;;4.50;;
29206;SDS011;16247;50.840;4.382;2023-03-21T04:03:00;12.63;;;4.63;;
29206;SDS011;16247;50.840;4.382;2023-03-21T04:05:31;15.13;;;4.82;;
29206;SDS011;16247;50.840;4.382;2023-03-21T04:07:58;11.27;;;4.20;;
29206;SDS011;16247;50.840;4.382;2023-03-21T04:10:30;17.67;;;4.88;;
29206;SDS011;16247;50.840;4.382;2023-03-21T04:12:55;13.52;;;4.90;;
29206;SDS011;16247;50.840;4.382;2023-03-21T04:15:21;11.25;;;5.07;;
29206;SDS011;16247;50.840;4.382;2023-03-21T04:17:49;13.02;;;5.45;;
29206;SDS011;16247;50.840;4.382;2023-03-21T04:20:19;10.00;;;4.80;;
29206;SDS011;16247;50.840;4.382;2023-03-21T04:22:45;13.43;;;5.68;;
29206;SDS011;16247;50.840;4.382;2023-03-21T04:25:13;13.63;;;5.50;;
29206;SDS011;16247;50.840;4.382;2023-03-21T04:27:57;14.20;;;5.10;;
29206;SDS011;16247;50.840;4.382;2023-03-21T04:30:47;17.05;;;5.53;;
29206;SDS011;16247;50.840;4.382;2023-03-21T04:36:48;16.10;;;6.32;;
29206;SDS011;16247;50.840;4.382;2023-03-21T04:39:45;13.15;;;5.82;;
29206;SDS011;16247;50.840;4.382;2023-03-21T04:42:43;15.30;;;5.43;;
29206;SDS011;16247;50.840;4.382;2023-03-21T04:45:15;13.95;;;6.25;;
29206;SDS011;16247;50.840;4.382;2023-03-21T04:50:12;16.10;;;5.97;;
29206;SDS011;16247;50.840;4.382;2023-03-21T04:52:47;16.05;;;5.72;;
29206;SDS011;16247;50.840;4.382;2023-03-21T04:55:13;15.75;;;6.00;;
29206;SDS011;16247;50.840;4.382;2023-03-21T04:57:40;14.60;;;6.28;;
29206;SDS011;16247;50.840;4.382;2023-03-21T05:00:06;15.15;;;5.50;;
29206;SDS011;16247;50.840;4.382;2023-03-21T05:02:38;14.35;;;5.57;;
29206;SDS011;16247;50.840;4.382;2023-03-21T05:05:05;14.25;;;5.82;;
29206;SDS011;16247;50.840;4.382;2023-03-21T05:07:37;19.05;;;6.07;;
29206;SDS011;16247;50.840;4.382;2023-03-21T05:10:09;23.33;;;6.65;;
29206;SDS011;16247;50.840;4.382;2023-03-21T05:12:36;20.08;;;6.38;;
29206;SDS011;16247;50.840;4.382;2023-03-21T05:15:06;14.98;;;7.13;;
29206;SDS011;16247;50.840;4.382;2023-03-21T05:17:34;15.00;;;6.35;;
29206;SDS011;16247;50.840;4.382;2023-03-21T05:33:13;14.88;;;6.28;;
29206;SDS011;16247;50.840;4.382;2023-03-21T05:42:01;18.67;;;6.53;;
29206;SDS011;16247;50.840;4.382;2023-03-21T05:45:19;18.20;;;7.10;;
29206;SDS011;16247;50.840;4.382;2023-03-21T05:48:07;23.52;;;6.90;;
29206;SDS011;16247;50.840;4.382;2023-03-21T05:50:37;15.05;;;6.18;;
29206;SDS011;16247;50.840;4.382;2023-03-21T05:53:04;17.75;;;6.10;;
29206;SDS011;16247;50.840;4.382;2023-03-21T06:00:35;13.23;;;6.63;;
29206;SDS011;16247;50.840;4.382;2023-03-21T06:03:21;17.98;;;6.60;;
29206;SDS011;16247;50.840;4.382;2023-03-21T06:05:48;14.10;;;5.07;;
29206;SDS011;16247;50.840;4.382;2023-03-21T06:10:52;20.95;;;7.60;;
29206;SDS011;16247;50.840;4.382;2023-03-21T06:25:48;13.70;;;7.10;;
29206;SDS011;16247;50.840;4.382;2023-03-21T06:28:26;13.33;;;6.83;;
29206;SDS011;16247;50.840;4.382;2023-03-21T06:30:54;17.08;;;6.20;;
29206;SDS011;16247;50.840;4.382;2023-03-21T06:33:24;15.77;;;6.65;;
29206;SDS011;16247;50.840;4.382;2023-03-21T06:35:51;17.73;;;7.88;;
29206;SDS011;16247;50.840;4.382;2023-03-21T06:38:19;15.18;;;6.60;;
29206;SDS011;16247;50.840;4.382;2023-03-21T06:43:21;18.73;;;6.30;;
29206;SDS011;16247;50.840;4.382;2023-03-21T06:45:48;14.15;;;6.18;;
29206;SDS011;16247;50.840;4.382;2023-03-21T06:48:14;12.07;;;5.72;;
29206;SDS011;16247;50.840;4.382;2023-03-21T06:50:40;10.77;;;4.65;;
29206;SDS011;16247;50.840;4.382;2023-03-21T06:53:09;9.23;;;5.03;;
29206;SDS011;16247;50.840;4.382;2023-03-21T06:58:10;13.35;;;5.90;;
29206;SDS011;16247;50.840;4.382;2023-03-21T07:00:49;14.95;;;4.95;;
29206;SDS011;16247;50.840;4.382;2023-03-21T07:03:15;12.70;;;5.40;;
29206;SDS011;16247;50.840;4.382;2023-03-21T07:05:41;9.70;;;4.57;;
29206;SDS011;16247;50.840;4.382;2023-03-21T07:08:09;13.77;;;4.75;;
29206;SDS011;16247;50.840;4.382;2023-03-21T07:10:41;11.15;;;5.05;;
29206;SDS011;16247;50.840;4.382;2023-03-21T07:13:08;11.38;;;4.63;;
29206;SDS011;16247;50.840;4.382;2023-03-21T07:15:35;11.38;;;4.93;;
29206;SDS011;16247;50.840;4.382;2023-03-21T07:18:05;12.80;;;3.70;;
29206;SDS011;16247;50.840;4.382;2023-03-21T07:20:32;8.63;;;4.50;;
29206;SDS011;16247;50.840;4.382;2023-03-21T07:23:06;12.93;;;4.60;;
29206;SDS011;16247;50.840;4.382;2023-03-21T07:25:42;12.60;;;4.32;;
29206;SDS011;16247;50.840;4.382;2023-03-21T07:28:11;8.75;;;3.55;;
29206;SDS011;16247;50.840;4.382;2023-03-21T07:30:36;8.00;;;4.07;;
29206;SDS011;16247;50.840;4.382;2023-03-21T07:33:02;11.90;;;3.78;;
29206;SDS011;16247;50.840;4.382;2023-03-21T07:38:24;11.02;;;3.40;;
29206;SDS011;16247;50.840;4.382;2023-03-21T07:40:53;6.00;;;2.72;;
29206;SDS011;16247;50.840;4.382;2023-03-21T07:43:21;5.05;;;2.80;;
29206;SDS011;16247;50.840;4.382;2023-03-21T07:45:56;3.88;;;2.47;;
29206;SDS011;16247;50.840;4.382;2023-03-21T07:48:24;5.93;;;2.60;;
29206;SDS011;16247;50.840;4.382;2023-03-21T07:50:52;8.30;;;2.63;;
29206;SDS011;16247;50.840;4.382;2023-03-21T07:53:20;10.38;;;3.42;;
29206;SDS011;16247;50.840;4.382;2023-03-21T07:55:54;5.70;;;3.15;;
29206;SDS011;16247;50.840;4.382;2023-03-21T07:58:23;6.95;;;3.17;;
29206;SDS011;16247;50.840;4.382;2023-03-21T08:00:52;6.90;;;2.70;;
29206;SDS011;16247;50.840;4.382;2023-03-21T08:03:21;4.45;;;2.70;;
29206;SDS011;16247;50.840;4.382;2023-03-21T08:05:48;11.00;;;3.50;;
29206;SDS011;16247;50.840;4.382;2023-03-21T08:08:58;7.28;;;3.22;;
29206;SDS011;16247;50.840;4.382;2023-03-21T08:11:24;10.27;;;4.25;;
29206;SDS011;16247;50.840;4.382;2023-03-21T08:13:51;6.50;;;3.72;;
29206;SDS011;16247;50.840;4.382;2023-03-21T08:18:54;11.32;;;4.07;;
29206;SDS011;16247;50.840;4.382;2023-03-21T08:21:20;7.40;;;3.47;;
29206;SDS011;16247;50.840;4.382;2023-03-21T08:23:46;10.07;;;3.85;;
29206;SDS011;16247;50.840;4.382;2023-03-21T08:26:11;10.52;;;3.40;;
29206;SDS011;16247;50.840;4.382;2023-03-21T08:31:06;10.05;;;3.78;;
29206;SDS011;16247;50.840;4.382;2023-03-21T08:33:33;7.40;;;3.85;;
29206;SDS011;16247;50.840;4.382;2023-03-21T08:35:59;13.93;;;5.00;;
29206;SDS011;16247;50.840;4.382;2023-03-21T08:38:27;11.25;;;4.95;;
29206;SDS011;16247;50.840;4.382;2023-03-21T08:40:58;10.70;;;3.65;;
29206;SDS011;16247;50.840;4.382;2023-03-21T08:43:25;7.57;;;3.22;;
29206;SDS011;16247;50.840;4.382;2023-03-21T08:45:53;11.00;;;4.03;;
29206;SDS011;16247;50.840;4.382;2023-03-21T08:48:19;9.70;;;4.03;;
29206;SDS011;16247;50.840;4.382;2023-03-21T08:50:47;11.68;;;3.67;;
29206;SDS011;16247;50.840;4.382;2023-03-21T08:53:12;11.85;;;5.13;;
29206;SDS011;16247;50.840;4.382;2023-03-21T08:55:38;5.90;;;3.40;;
29206;SDS011;16247;50.840;4.382;2023-03-21T08:58:05;8.38;;;4.03;;
29206;SDS011;16247;50.840;4.382;2023-03-21T09:00:31;8.30;;;4.05;;
29206;SDS011;16247;50.840;4.382;2023-03-21T09:02:57;8.65;;;3.97;;
29206;SDS011;16247;50.840;4.382;2023-03-21T09:05:22;11.32;;;3.80;;
29206;SDS011;16247;50.840;4.382;2023-03-21T09:07:58;11.05;;;3.70;;
29206;SDS011;16247;50.840;4.382;2023-03-21T09:10:44;12.00;;;3.40;;
29206;SDS011;16247;50.840;4.382;2023-03-21T09:16:11;5.88;;;2.67;;
29206;SDS011;16247;50.840;4.382;2023-03-21T09:18:36;9.82;;;3.03;;
29206;SDS011;16247;50.840;4.382;2023-03-21T09:21:13;9.20;;;4.13;;
29206;SDS011;16247;50.840;4.382;2023-03-21T09:23:41;7.22;;;3.17;;
29206;SDS011;16247;50.840;4.382;2023-03-21T09:26:13;9.80;;;3.72;;
29206;SDS011;16247;50.840;4.382;2023-03-21T09:28:40;7.65;;;3.38;;
29206;SDS011;16247;50.840;4.382;2023-03-21T09:31:09;9.27;;;3.50;;
29206;SDS011;16247;50.840;4.382;2023-03-21T09:33:37;9.80;;;3.40;;
29206;SDS011;16247;50.840;4.382;2023-03-21T09:36:06;8.50;;;3.60;;
29206;SDS011;16247;50.840;4.382;2023-03-21T09:38:39;10.80;;;3.53;;
29206;SDS011;16247;50.840;4.382;2023-03-21T09:41:19;8.90;;;3.60;;
29206;SDS011;16247;50.840;4.382;2023-03-21T09:49:30;11.48;;;4.50;;
29206;SDS011;16247;50.840;4.382;2023-03-21T09:51:59;12.07;;;5.32;;
29206;SDS011;16247;50.840;4.382;2023-03-21T09:54:36;8.10;;;3.65;;
29206;SDS011;16247;50.840;4.382;2023-03-21T09:57:11;8.93;;;3.40;;
29206;SDS011;16247;50.840;4.382;2023-03-21T09:59:51;8.68;;;4.10;;
29206;SDS011;16247;50.840;4.382;2023-03-21T10:07:40;15.32;;;5.85;;
29206;SDS011;16247;50.840;4.382;2023-03-21T10:10:13;8.15;;;2.72;;
29206;SDS011;16247;50.840;4.382;2023-03-21T10:12:43;8.48;;;3.40;;
29206;SDS011;16247;50.840;4.382;2023-03-21T10:15:14;9.82;;;3.88;;
29206;SDS011;16247;50.840;4.382;2023-03-21T10:17:46;9.98;;;3.40;;
29206;SDS011;16247;50.840;4.382;2023-03-21T10:20:34;8.53;;;3.30;;
29206;SDS011;16247;50.840;4.382;2023-03-21T10:36:07;11.93;;;3.05;;
29206;SDS011;16247;50.840;4.382;2023-03-21T10:49:13;8.52;;;3.60;;
29206;SDS011;16247;50.840;4.382;2023-03-21T10:52:21;6.65;;;3.40;;
29206;SDS011;16247;50.840;4.382;2023-03-21T10:55:38;11.27;;;4.72;;
29206;SDS011;16247;50.840;4.382;2023-03-21T10:58:24;10.63;;;3.58;;
29206;SDS011;16247;50.840;4.382;2023-03-21T11:01:03;8.05;;;4.20;;
29206;SDS011;16247;50.840;4.382;2023-03-21T11:03:39;7.82;;;3.58;;
29206;SDS011;16247;50.840;4.382;2023-03-21T11:06:14;7.95;;;3.78;;
29206;SDS011;16247;50.840;4.382;2023-03-21T11:08:47;7.60;;;3.80;;
29206;SDS011;16247;50.840;4.382;2023-03-21T11:11:19;10.25;;;4.95;;
29206;SDS011;16247;50.840;4.382;2023-03-21T11:13:55;9.48;;;4.28;;
29206;SDS011;16247;50.840;4.382;2023-03-21T11:16:36;11.90;;;4.28;;
29206;SDS011;16247;50.840;4.382;2023-03-21T11:19:17;10.63;;;4.72;;
29206;SDS011;16247;50.840;4.382;2023-03-21T11:21:50;9.57;;;4.20;;
29206;SDS011;16247;50.840;4.382;2023-03-21T11:24:16;8.48;;;4.70;;
29206;SDS011;16247;50.840;4.382;2023-03-21T11:26:44;19.42;;;5.45;;
29206;SDS011;16247;50.840;4.382;2023-03-21T11:31:51;13.23;;;4.75;;
29206;SDS011;16247;50.840;4.382;2023-03-21T11:34:31;12.68;;;4.18;;
29206;SDS011;16247;50.840;4.382;2023-03-21T11:37:03;10.30;;;4.13;;
29206;SDS011;16247;50.840;4.382;2023-03-21T11:39:33;11.40;;;3.88;;
29206;SDS011;16247;50.840;4.382;2023-03-21T11:42:27;17.15;;;6.65;;
29206;SDS011;16247;50.840;4.382;2023-03-21T11:44:56;11.88;;;5.45;;
29206;SDS011;16247;50.840;4.382;2023-03-21T11:47:43;11.95;;;4.00;;
29206;SDS011;16247;50.840;4.382;2023-03-21T11:50:56;10.02;;;4.25;;
29206;SDS011;16247;50.840;4.382;2023-03-21T11:53:04;10.57;;;4.97;;
29206;SDS011;16247;50.840;4.382;2023-03-21T12:01:26;6.40;;;3.60;;
29206;SDS011;16247;50.840;4.382;2023-03-21T12:26:25;10.30;;;4.47;;
29206;SDS011;16247;50.840;4.382;2023-03-21T12:32:02;11.40;;;4.88;;
29206;SDS011;16247;50.840;4.382;2023-03-21T12:51:48;7.82;;;4.00;;
29206;SDS011;16247;50.840;4.382;2023-03-21T12:54:41;10.13;;;4.22;;
29206;SDS011;16247;50.840;4.382;2023-03-21T12:57:28;6.20;;;4.38;;
29206;SDS011;16247;50.840;4.382;2023-03-21T13:05:53;5.80;;;3.53;;
29206;SDS011;16247;50.840;4.382;2023-03-21T13:08:45;8.57;;;4.05;;
29206;SDS011;16247;50.840;4.382;2023-03-21T13:11:48;8.70;;;3.75;;
29206;SDS011;16247;50.840;4.382;2023-03-21T13:14:25;9.45;;;4.10;;
29206;SDS011;16247;50.840;4.382;2023-03-21T13:17:05;6.78;;;3.83;;
29206;SDS011;16247;50.840;4.382;2023-03-21T13:19:52;7.78;;;2.55;;
29206;SDS011;16247;50.840;4.382;2023-03-21T13:22:37;6.75;;;3.63;;
29206;SDS011;16247;50.840;4.382;2023-03-21T13:25:19;8.35;;;3.20;;
29206;SDS011;16247;50.840;4.382;2023-03-21T13:28:04;9.52;;;4.03;;
29206;SDS011;16247;50.840;4.382;2023-03-21T13:34:08;8.25;;;3.85;;
29206;SDS011;16247;50.840;4.382;2023-03-21T13:39:15;8.70;;;4.10;;
29206;SDS011;16247;50.840;4.382;2023-03-21T13:42:24;9.95;;;4.72;;
29206;SDS011;16247;50.840;4.382;2023-03-21T13:45:21;8.38;;;3.80;;
29206;SDS011;16247;50.840;4.382;2023-03-21T13:48:24;14.18;;;3.65;;
29206;SDS011;16247;50.840;4.382;2023-03-21T13:53:44;8.68;;;3.20;;
29206;SDS011;16247;50.840;4.382;2023-03-21T13:57:20;9.07;;;3.63;;
29206;SDS011;16247;50.840;4.382;2023-03-21T14:02:54;6.72;;;3.40;;
29206;SDS011;16247;50.840;4.382;2023-03-21T14:06:07;7.20;;;3.22;;
29206;SDS011;16247;50.840;4.382;2023-03-21T14:08:57;5.32;;;3.10;;
29206;SDS011;16247;50.840;4.382;2023-03-21T14:12:14;7.20;;;3.67;;
29206;SDS011;16247;50.840;4.382;2023-03-21T14:29:30;10.00;;;4.65;;
29206;SDS011;16247;50.840;4.382;2023-03-21T15:21:20;9.32;;;5.47;;
29206;SDS011;16247;50.840;4.382;2023-03-21T15:24:31;8.18;;;5.50;;
29206;SDS011;16247;50.840;4.382;2023-03-21T15:44:50;6.50;;;4.65;;
29206;SDS011;16247;50.840;4.382;2023-03-21T16:24:21;9.38;;;6.65;;
29206;SDS011;16247;50.840;4.382;2023-03-21T16:29:23;12.25;;;7.00;;
29206;SDS011;16247;50.840;4.382;2023-03-21T16:31:55;14.27;;;7.72;;
29206;SDS011;16247;50.840;4.382;2023-03-21T17:44:23;15.27;;;8.07;;
29206;SDS011;16247;50.840;4.382;2023-03-21T17:49:21;19.35;;;9.55;;
29206;SDS011;16247;50.840;4.382;2023-03-21T17:55:15;20.45;;;10.88;;
29206;SDS011;16247;50.840;4.382;2023-03-21T17:57:49;24.02;;;12.35;;
29206;SDS011;16247;50.840;4.382;2023-03-21T18:00:26;19.10;;;11.05;;
29206;SDS011;16247;50.840;4.382;2023-03-21T18:03:22;19.55;;;11.27;;
29206;SDS011;16247;50.840;4.382;2023-03-21T18:05:54;19.95;;;10.82;;
29206;SDS011;16247;50.840;4.382;2023-03-21T18:14:44;19.13;;;9.55;;
29206;SDS011;16247;50.840;4.382;2023-03-21T18:17:55;12.65;;;7.30;;
29206;SDS011;16247;50.840;4.382;2023-03-21T18:26:11;14.70;;;6.82;;
29206;SDS011;16247;50.840;4.382;2023-03-21T18:28:51;14.18;;;6.22;;
29206;SDS011;16247;50.840;4.382;2023-03-21T18:35:45;8.63;;;6.15;;
29206;SDS011;16247;50.840;4.382;2023-03-21T18:38:27;10.07;;;6.35;;
29206;SDS011;16247;50.840;4.382;2023-03-21T18:47:16;9.52;;;7.20;;
29206;SDS011;16247;50.840;4.382;2023-03-21T18:53:28;12.70;;;6.72;;
29206;SDS011;16247;50.840;4.382;2023-03-21T18:58:56;9.75;;;6.03;;
29206;SDS011;16247;50.840;4.382;2023-03-21T19:05:34;8.23;;;5.43;;
29206;SDS011;16247;50.840;4.382;2023-03-21T19:08:45;10.98;;;5.88;;
29206;SDS011;16247;50.840;4.382;2023-03-21T19:15:21;9.40;;;6.75;;
29206;SDS011;16247;50.840;4.382;2023-03-21T19:25:45;13.73;;;7.28;;
29206;SDS011;16247;50.840;4.382;2023-03-21T19:28:34;11.93;;;8.05;;
29206;SDS011;16247;50.840;4.382;2023-03-21T19:31:09;11.43;;;7.43;;
29206;SDS011;16247;50.840;4.382;2023-03-21T19:33:47;9.85;;;6.75;;
29206;SDS011;16247;50.840;4.382;2023-03-21T19:36:41;8.93;;;5.60;;
29206;SDS011;16247;50.840;4.382;2023-03-21T19:39:31;12.15;;;6.53;;
29206;SDS011;16247;50.840;4.382;2023-03-21T19:42:09;15.75;;;7.38;;
29206;SDS011;16247;50.840;4.382;2023-03-21T19:45:16;9.10;;;6.70;;
29206;SDS011;16247;50.840;4.382;2023-03-21T19:50:51;10.57;;;6.13;;
29206;SDS011;16247;50.840;4.382;2023-03-21T19:53:18;10.68;;;5.93;;
29206;SDS011;16247;50.840;4.382;2023-03-21T20:01:17;8.65;;;4.55;;
29206;SDS011;16247;50.840;4.382;2023-03-21T20:27:08;8.15;;;4.70;;
29206;SDS011;16247;50.840;4.382;2023-03-21T20:29:46;14.27;;;3.97;;
29206;SDS011;16247;50.840;4.382;2023-03-21T20:53:31;7.57;;;4.03;;
29206;SDS011;16247;50.840;4.382;2023-03-21T21:02:04;10.27;;;3.67;;
29206;SDS011;16247;50.840;4.382;2023-03-21T21:04:35;8.10;;;2.88;;
29206;SDS011;16247;50.840;4.382;2023-03-21T21:20:53;14.60;;;4.13;;
29206;SDS011;16247;50.840;4.382;2023-03-21T22:59:19;11.63;;;4.90;;
29206;SDS011;16247;50.840;4.382;2023-03-21T23:01:47;12.00;;;4.53;;
29206;SDS011;16247;50.840;4.382;2023-03-21T23:43:39;12.85;;;8.30;;
